createdAt,value
2018-02-10T00:00:25.903Z,34.38
2018-02-10T00:01:26.194Z,34.38
2018-02-10T00:02:25.884Z,34.38
2018-02-10T00:03:25.886Z,34.19
2018-02-10T00:04:26.079Z,34.48
2018-02-10T00:05:25.876Z,34.29
2018-02-10T00:06:26.121Z,34.38
2018-02-10T00:07:25.855Z,34.00
2018-02-10T00:08:25.852Z,34.48
2018-02-10T00:09:25.845Z,34.29
2018-02-10T00:10:25.842Z,34.48
2018-02-10T00:11:26.085Z,34.48
2018-02-10T00:12:25.827Z,34.09
2018-02-10T00:13:25.820Z,34.29
2018-02-10T00:14:25.817Z,34.09
2018-02-10T00:15:25.845Z,34.48
2018-02-10T00:16:26.064Z,34.48
2018-02-10T00:17:25.904Z,34.00
2018-02-10T00:18:25.789Z,34.09
2018-02-10T00:19:25.823Z,34.09
2018-02-10T00:20:25.776Z,34.38
2018-02-10T00:21:26.075Z,34.09
2018-02-10T00:22:25.771Z,34.38
2018-02-10T00:23:25.761Z,34.67
2018-02-10T00:24:25.752Z,34.86
2018-02-10T00:25:25.754Z,34.77
2018-02-10T00:26:26.050Z,34.58
2018-02-10T00:27:25.789Z,35.16
2018-02-10T00:28:25.731Z,34.77
2018-02-10T00:29:25.725Z,34.96
2018-02-10T00:30:25.721Z,35.06
2018-02-10T00:31:25.965Z,35.16
2018-02-10T00:32:25.707Z,35.06
2018-02-10T00:33:25.701Z,34.86
2018-02-10T00:34:25.700Z,34.86
2018-02-10T00:35:25.691Z,35.06
2018-02-10T00:36:25.686Z,35.16
2018-02-10T00:37:25.678Z,34.96
2018-02-10T00:38:25.674Z,34.96
2018-02-10T00:39:25.667Z,35.06
2018-02-10T00:40:25.660Z,35.06
2018-02-10T00:41:25.903Z,35.06
2018-02-10T00:42:26.000Z,34.96
2018-02-10T00:43:25.809Z,35.06
2018-02-10T00:44:25.638Z,34.96
2018-02-10T00:45:25.629Z,34.96
2018-02-10T00:46:25.679Z,35.06
2018-02-10T00:47:25.629Z,35.25
2018-02-10T00:48:25.620Z,35.06
2018-02-10T00:49:25.609Z,34.96
2018-02-10T00:50:25.610Z,35.06
2018-02-10T00:51:25.594Z,35.16
2018-02-10T00:52:25.612Z,34.96
2018-02-10T00:53:25.590Z,35.06
2018-02-10T00:54:25.577Z,35.06
2018-02-10T00:55:25.569Z,34.96
2018-02-10T00:56:25.651Z,35.06
2018-02-10T00:57:25.557Z,35.16
2018-02-10T00:58:25.562Z,35.16
2018-02-10T00:59:25.546Z,35.25
2018-02-10T01:00:25.569Z,35.16
2018-02-10T01:01:25.536Z,35.25
2018-02-10T01:02:25.626Z,35.44
2018-02-10T01:03:25.523Z,35.25
2018-02-10T01:04:25.516Z,35.44
2018-02-10T01:05:25.508Z,35.25
2018-02-10T01:06:25.553Z,35.35
2018-02-10T01:07:25.498Z,35.25
2018-02-10T01:08:25.690Z,35.35
2018-02-10T01:09:25.597Z,35.25
2018-02-10T01:10:25.732Z,35.35
2018-02-10T01:11:25.474Z,35.25
2018-02-10T01:12:25.719Z,35.35
2018-02-10T01:13:25.460Z,35.35
2018-02-10T01:14:25.453Z,35.35
2018-02-10T01:15:25.446Z,35.35
2018-02-10T01:16:25.446Z,35.25
2018-02-10T01:17:25.438Z,35.44
2018-02-10T01:18:25.430Z,35.25
2018-02-10T01:19:25.427Z,35.35
2018-02-10T01:20:25.415Z,35.35
2018-02-10T01:21:25.414Z,35.25
2018-02-10T01:22:25.454Z,35.35
2018-02-10T01:23:25.402Z,35.54
2018-02-10T01:24:25.396Z,35.44
2018-02-10T01:25:25.390Z,35.44
2018-02-10T01:26:25.386Z,35.25
2018-02-10T01:27:25.378Z,35.35
2018-02-10T01:28:25.623Z,35.54
2018-02-10T01:29:25.372Z,35.35
2018-02-10T01:30:25.356Z,35.35
2018-02-10T01:31:25.389Z,35.25
2018-02-10T01:32:25.344Z,35.44
2018-02-10T01:33:25.598Z,35.35
2018-02-10T01:34:25.335Z,35.44
2018-02-10T01:35:25.352Z,35.35
2018-02-10T01:36:25.370Z,35.35
2018-02-10T01:37:25.326Z,35.44
2018-02-10T01:38:25.562Z,35.44
2018-02-10T01:39:25.315Z,35.54
2018-02-10T01:40:25.298Z,35.35
2018-02-10T01:41:25.292Z,35.44
2018-02-10T01:42:25.285Z,35.44
2018-02-10T01:43:25.527Z,35.44
2018-02-10T01:44:25.274Z,35.35
2018-02-10T01:45:25.266Z,35.44
2018-02-10T01:46:25.259Z,35.44
2018-02-10T01:47:25.253Z,35.44
2018-02-10T01:48:25.498Z,35.54
2018-02-10T01:49:25.240Z,35.44
2018-02-10T01:50:25.236Z,35.54
2018-02-10T01:51:25.231Z,35.44
2018-02-10T01:52:25.226Z,35.54
2018-02-10T01:53:25.467Z,35.54
2018-02-10T01:54:25.211Z,35.44
2018-02-10T01:55:25.201Z,35.35
2018-02-10T01:56:25.198Z,35.44
2018-02-10T01:57:25.191Z,35.54
2018-02-10T01:58:25.502Z,35.54
2018-02-10T01:59:25.176Z,35.44
2018-02-10T02:00:25.174Z,35.25
2018-02-10T02:01:25.164Z,35.44
2018-02-10T02:02:25.162Z,35.44
2018-02-10T02:03:25.406Z,35.35
2018-02-10T02:04:25.149Z,35.25
2018-02-10T02:05:25.146Z,35.35
2018-02-10T02:06:25.135Z,35.35
2018-02-10T02:07:25.135Z,35.35
2018-02-10T02:08:25.422Z,35.54
2018-02-10T02:09:25.118Z,35.25
2018-02-10T02:10:25.114Z,35.44
2018-02-10T02:11:25.108Z,35.44
2018-02-10T02:12:25.098Z,35.44
2018-02-10T02:13:25.346Z,35.54
2018-02-10T02:14:25.088Z,35.35
2018-02-10T02:15:25.085Z,35.35
2018-02-10T02:16:25.077Z,35.44
2018-02-10T02:17:25.072Z,35.44
2018-02-10T02:18:25.314Z,35.54
2018-02-10T02:19:25.056Z,35.44
2018-02-10T02:20:25.052Z,35.54
2018-02-10T02:21:25.044Z,35.35
2018-02-10T02:22:25.036Z,35.54
2018-02-10T02:23:25.284Z,35.54
2018-02-10T02:24:25.026Z,35.54
2018-02-10T02:25:25.019Z,35.54
2018-02-10T02:26:25.016Z,35.44
2018-02-10T02:27:25.006Z,35.54
2018-02-10T02:28:25.250Z,35.44
2018-02-10T02:29:24.994Z,35.44
2018-02-10T02:30:24.985Z,35.35
2018-02-10T02:31:24.982Z,35.35
2018-02-10T02:32:24.977Z,35.35
2018-02-10T02:33:25.234Z,35.44
2018-02-10T02:34:24.964Z,35.54
2018-02-10T02:35:24.958Z,35.35
2018-02-10T02:36:24.953Z,35.25
2018-02-10T02:37:24.952Z,35.44
2018-02-10T02:38:25.191Z,35.35
2018-02-10T02:39:24.936Z,35.54
2018-02-10T02:40:24.926Z,35.25
2018-02-10T02:41:24.924Z,35.25
2018-02-10T02:42:25.063Z,35.54
2018-02-10T02:43:25.408Z,35.25
2018-02-10T02:44:24.902Z,35.25
2018-02-10T02:45:24.897Z,35.44
2018-02-10T02:46:24.896Z,35.44
2018-02-10T02:47:24.882Z,35.35
2018-02-10T02:48:25.130Z,35.25
2018-02-10T02:49:24.878Z,35.25
2018-02-10T02:50:24.862Z,35.25
2018-02-10T02:51:24.857Z,35.35
2018-02-10T02:52:24.850Z,35.44
2018-02-10T02:53:25.094Z,35.44
2018-02-10T02:54:24.844Z,35.44
2018-02-10T02:55:24.848Z,35.35
2018-02-10T02:56:24.826Z,35.35
2018-02-10T02:57:24.833Z,35.44
2018-02-10T02:58:25.080Z,35.35
2018-02-10T02:59:24.808Z,35.44
2018-02-10T03:00:24.803Z,35.25
2018-02-10T03:01:24.801Z,35.54
2018-02-10T03:02:24.794Z,35.25
2018-02-10T03:03:25.033Z,35.44
2018-02-10T03:04:25.027Z,35.35
2018-02-10T03:05:24.769Z,35.35
2018-02-10T03:06:24.764Z,35.35
2018-02-10T03:07:24.762Z,35.25
2018-02-10T03:08:25.013Z,35.44
2018-02-10T03:09:24.744Z,35.35
2018-02-10T03:10:24.738Z,35.44
2018-02-10T03:11:24.734Z,35.25
2018-02-10T03:12:24.726Z,35.44
2018-02-10T03:13:24.971Z,35.35
2018-02-10T03:14:24.770Z,35.44
2018-02-10T03:15:24.705Z,35.44
2018-02-10T03:16:24.700Z,35.35
2018-02-10T03:17:24.695Z,35.35
2018-02-10T03:18:24.941Z,35.44
2018-02-10T03:19:24.685Z,35.44
2018-02-10T03:20:24.676Z,35.44
2018-02-10T03:21:24.669Z,35.44
2018-02-10T03:22:24.664Z,35.35
2018-02-10T03:23:24.680Z,35.35
2018-02-10T03:24:24.904Z,35.35
2018-02-10T03:25:24.647Z,35.44
2018-02-10T03:26:24.789Z,35.35
2018-02-10T03:27:24.987Z,35.54
2018-02-10T03:28:24.632Z,35.35
2018-02-10T03:29:24.625Z,35.44
2018-02-10T03:30:24.618Z,35.54
2018-02-10T03:31:24.617Z,35.44
2018-02-10T03:32:24.599Z,35.35
2018-02-10T03:33:24.604Z,35.44
2018-02-10T03:34:24.592Z,35.44
2018-02-10T03:35:24.834Z,35.54
2018-02-10T03:36:24.583Z,35.54
2018-02-10T03:37:24.574Z,35.54
2018-02-10T03:38:24.565Z,35.44
2018-02-10T03:39:24.563Z,35.35
2018-02-10T03:40:24.552Z,35.44
2018-02-10T03:41:24.545Z,35.44
2018-02-10T03:42:24.544Z,35.25
2018-02-10T03:43:24.531Z,35.44
2018-02-10T03:44:24.525Z,35.44
2018-02-10T03:45:24.523Z,35.54
2018-02-10T03:46:24.513Z,35.44
2018-02-10T03:47:24.507Z,35.54
2018-02-10T03:48:24.497Z,35.35
2018-02-10T03:49:24.499Z,35.44
2018-02-10T03:50:24.490Z,35.44
2018-02-10T03:51:24.736Z,35.25
2018-02-10T03:52:24.475Z,35.44
2018-02-10T03:53:24.476Z,35.44
2018-02-10T03:54:24.464Z,35.35
2018-02-10T03:55:24.459Z,35.44
2018-02-10T03:56:24.455Z,35.35
2018-02-10T03:57:24.443Z,35.35
2018-02-10T03:58:24.441Z,35.44
2018-02-10T03:59:24.435Z,35.35
2018-02-10T04:00:24.426Z,35.44
2018-02-10T04:01:24.422Z,35.44
2018-02-10T04:02:24.663Z,35.44
2018-02-10T04:03:24.414Z,35.35
2018-02-10T04:04:24.404Z,35.44
2018-02-10T04:05:24.395Z,35.44
2018-02-10T04:06:24.390Z,35.54
2018-02-10T04:07:24.383Z,35.54
2018-02-10T04:08:24.374Z,35.44
2018-02-10T04:09:24.373Z,35.44
2018-02-10T04:10:24.364Z,35.44
2018-02-10T04:11:24.366Z,35.44
2018-02-10T04:12:24.351Z,35.44
2018-02-10T04:13:24.595Z,35.44
2018-02-10T04:14:24.345Z,35.35
2018-02-10T04:15:24.333Z,35.44
2018-02-10T04:16:24.327Z,35.44
2018-02-10T04:17:24.321Z,35.44
2018-02-10T04:18:24.567Z,35.35
2018-02-10T04:19:24.309Z,35.54
2018-02-10T04:20:24.502Z,35.44
2018-02-10T04:21:24.344Z,35.44
2018-02-10T04:22:24.289Z,35.35
2018-02-10T04:23:24.536Z,35.35
2018-02-10T04:24:24.276Z,35.54
2018-02-10T04:25:24.425Z,35.35
2018-02-10T04:26:24.280Z,35.44
2018-02-10T04:27:24.306Z,35.35
2018-02-10T04:28:24.505Z,35.44
2018-02-10T04:29:24.300Z,35.44
2018-02-10T04:30:24.241Z,35.54
2018-02-10T04:31:24.236Z,35.44
2018-02-10T04:32:24.226Z,35.44
2018-02-10T04:33:24.476Z,35.54
2018-02-10T04:34:24.214Z,35.44
2018-02-10T04:35:24.212Z,35.54
2018-02-10T04:36:24.205Z,35.54
2018-02-10T04:37:24.196Z,35.35
2018-02-10T04:38:24.444Z,35.44
2018-02-10T04:39:24.183Z,35.44
2018-02-10T04:40:24.176Z,35.35
2018-02-10T04:41:24.173Z,35.35
2018-02-10T04:42:24.164Z,35.25
2018-02-10T04:43:24.415Z,35.25
2018-02-10T04:44:24.150Z,35.44
2018-02-10T04:45:24.144Z,35.35
2018-02-10T04:46:24.137Z,35.64
2018-02-10T04:47:24.134Z,35.25
2018-02-10T04:48:24.377Z,35.35
2018-02-10T04:49:24.118Z,35.35
2018-02-10T04:50:24.116Z,35.44
2018-02-10T04:51:24.107Z,35.64
2018-02-10T04:52:24.098Z,35.25
2018-02-10T04:53:24.342Z,35.64
2018-02-10T04:54:24.087Z,35.35
2018-02-10T04:55:24.081Z,35.35
2018-02-10T04:56:24.107Z,35.64
2018-02-10T04:57:24.087Z,35.35
2018-02-10T04:58:24.312Z,35.35
2018-02-10T04:59:24.054Z,35.44
2018-02-10T05:00:24.055Z,35.44
2018-02-10T05:01:24.042Z,35.35
2018-02-10T05:02:24.037Z,35.64
2018-02-10T05:03:24.287Z,35.64
2018-02-10T05:04:24.028Z,35.44
2018-02-10T05:05:24.024Z,35.64
2018-02-10T05:06:24.017Z,35.54
2018-02-10T05:07:24.019Z,35.64
2018-02-10T05:08:24.245Z,35.54
2018-02-10T05:09:23.995Z,35.64
2018-02-10T05:10:24.035Z,35.64
2018-02-10T05:11:23.978Z,35.64
2018-02-10T05:12:23.974Z,35.35
2018-02-10T05:13:24.216Z,35.64
2018-02-10T05:14:23.964Z,35.35
2018-02-10T05:15:23.965Z,35.54
2018-02-10T05:16:23.997Z,35.54
2018-02-10T05:17:23.941Z,35.44
2018-02-10T05:18:24.239Z,35.83
2018-02-10T05:19:23.933Z,35.73
2018-02-10T05:20:23.923Z,35.83
2018-02-10T05:21:23.917Z,35.64
2018-02-10T05:22:23.911Z,35.83
2018-02-10T05:23:24.156Z,35.64
2018-02-10T05:24:23.896Z,35.64
2018-02-10T05:25:23.898Z,35.64
2018-02-10T05:26:23.884Z,35.83
2018-02-10T05:27:23.877Z,35.83
2018-02-10T05:28:24.125Z,35.83
2018-02-10T05:29:23.869Z,35.64
2018-02-10T05:30:23.866Z,35.83
2018-02-10T05:31:23.853Z,35.83
2018-02-10T05:32:23.847Z,35.73
2018-02-10T05:33:24.111Z,35.83
2018-02-10T05:34:23.833Z,35.83
2018-02-10T05:35:23.834Z,35.83
2018-02-10T05:36:23.823Z,35.83
2018-02-10T05:37:23.827Z,35.83
2018-02-10T05:38:24.113Z,35.73
2018-02-10T05:39:23.807Z,35.83
2018-02-10T05:40:23.796Z,35.64
2018-02-10T05:41:23.832Z,35.54
2018-02-10T05:42:23.784Z,35.64
2018-02-10T05:43:24.392Z,35.73
2018-02-10T05:44:23.772Z,35.54
2018-02-10T05:45:23.916Z,35.73
2018-02-10T05:46:23.758Z,35.64
2018-02-10T05:47:23.802Z,35.83
2018-02-10T05:48:23.996Z,35.73
2018-02-10T05:49:23.788Z,35.64
2018-02-10T05:50:23.734Z,35.64
2018-02-10T05:51:23.781Z,35.64
2018-02-10T05:52:23.723Z,35.73
2018-02-10T05:53:24.218Z,35.64
2018-02-10T05:54:23.710Z,35.73
2018-02-10T05:55:23.700Z,35.73
2018-02-10T05:56:23.694Z,35.73
2018-02-10T05:57:23.689Z,35.83
2018-02-10T05:58:23.937Z,35.73
2018-02-10T05:59:23.676Z,35.73
2018-02-10T06:00:23.670Z,35.73
2018-02-10T06:01:23.665Z,35.83
2018-02-10T06:02:23.656Z,35.83
2018-02-10T06:03:23.649Z,35.83
2018-02-10T06:04:23.650Z,35.64
2018-02-10T06:05:23.640Z,35.64
2018-02-10T06:06:23.638Z,35.73
2018-02-10T06:07:23.628Z,35.83
2018-02-10T06:08:23.619Z,35.64
2018-02-10T06:09:23.866Z,35.73
2018-02-10T06:10:23.606Z,35.83
2018-02-10T06:11:23.606Z,35.73
2018-02-10T06:12:23.592Z,35.73
2018-02-10T06:13:23.585Z,35.73
2018-02-10T06:14:23.583Z,35.64
2018-02-10T06:15:23.827Z,35.83
2018-02-10T06:16:23.571Z,35.83
2018-02-10T06:17:23.566Z,35.83
2018-02-10T06:18:23.570Z,35.64
2018-02-10T06:19:23.554Z,35.64
2018-02-10T06:20:24.043Z,35.73
2018-02-10T06:21:23.537Z,35.64
2018-02-10T06:22:23.529Z,35.54
2018-02-10T06:23:23.526Z,35.73
2018-02-10T06:24:23.517Z,35.64
2018-02-10T06:25:23.515Z,35.83
2018-02-10T06:26:23.657Z,35.73
2018-02-10T06:27:23.499Z,35.83
2018-02-10T06:28:23.592Z,35.83
2018-02-10T06:29:23.490Z,35.73
2018-02-10T06:30:23.538Z,35.73
2018-02-10T06:31:23.724Z,35.73
2018-02-10T06:32:23.466Z,35.73
2018-02-10T06:33:23.462Z,35.83
2018-02-10T06:34:23.506Z,35.83
2018-02-10T06:35:23.453Z,35.83
2018-02-10T06:36:23.447Z,35.93
2018-02-10T06:37:23.685Z,35.73
2018-02-10T06:38:23.435Z,35.83
2018-02-10T06:39:23.427Z,35.83
2018-02-10T06:40:23.473Z,35.93
2018-02-10T06:41:23.413Z,35.93
2018-02-10T06:42:23.406Z,35.83
2018-02-10T06:43:23.398Z,36.02
2018-02-10T06:44:23.396Z,35.83
2018-02-10T06:45:23.386Z,35.93
2018-02-10T06:46:23.382Z,35.83
2018-02-10T06:47:23.373Z,35.93
2018-02-10T06:48:23.618Z,35.93
2018-02-10T06:49:23.367Z,35.93
2018-02-10T06:50:23.357Z,36.02
2018-02-10T06:51:23.355Z,36.11
2018-02-10T06:52:23.353Z,35.83
2018-02-10T06:53:23.637Z,35.93
2018-02-10T06:54:23.331Z,36.11
2018-02-10T06:55:23.324Z,36.02
2018-02-10T06:56:23.315Z,35.93
2018-02-10T06:57:23.311Z,36.02
2018-02-10T06:58:23.555Z,35.93
2018-02-10T06:59:23.313Z,35.93
2018-02-10T07:00:23.295Z,35.93
2018-02-10T07:01:23.290Z,35.93
2018-02-10T07:02:23.281Z,35.93
2018-02-10T07:03:23.534Z,35.93
2018-02-10T07:04:23.272Z,36.02
2018-02-10T07:05:23.281Z,35.93
2018-02-10T07:06:23.257Z,35.93
2018-02-10T07:07:23.252Z,36.02
2018-02-10T07:08:23.491Z,35.93
2018-02-10T07:09:23.237Z,35.93
2018-02-10T07:10:23.244Z,36.02
2018-02-10T07:11:23.228Z,36.21
2018-02-10T07:12:23.228Z,36.21
2018-02-10T07:13:23.463Z,36.31
2018-02-10T07:14:23.206Z,36.31
2018-02-10T07:15:23.203Z,36.21
2018-02-10T07:16:23.196Z,36.21
2018-02-10T07:17:23.202Z,36.60
2018-02-10T07:18:23.437Z,36.41
2018-02-10T07:19:23.182Z,36.41
2018-02-10T07:20:23.175Z,36.31
2018-02-10T07:21:23.164Z,36.41
2018-02-10T07:22:23.158Z,36.69
2018-02-10T07:23:23.397Z,36.89
2018-02-10T07:24:23.144Z,36.51
2018-02-10T07:25:23.138Z,36.99
2018-02-10T07:26:23.136Z,36.51
2018-02-10T07:27:23.126Z,36.89
2018-02-10T07:28:23.378Z,36.99
2018-02-10T07:29:23.113Z,36.99
2018-02-10T07:30:23.106Z,37.46
2018-02-10T07:31:23.104Z,37.08
2018-02-10T07:32:23.093Z,37.46
2018-02-10T07:33:23.336Z,37.66
2018-02-10T07:34:23.087Z,37.46
2018-02-10T07:35:23.109Z,37.27
2018-02-10T07:36:23.074Z,37.56
2018-02-10T07:37:23.068Z,37.37
2018-02-10T07:38:23.310Z,37.27
2018-02-10T07:39:23.051Z,37.37
2018-02-10T07:40:23.049Z,37.56
2018-02-10T07:41:23.049Z,37.27
2018-02-10T07:42:23.037Z,37.56
2018-02-10T07:43:23.285Z,37.37
2018-02-10T07:44:23.017Z,37.27
2018-02-10T07:45:23.017Z,37.37
2018-02-10T07:46:23.056Z,37.46
2018-02-10T07:47:23.001Z,37.76
2018-02-10T07:48:23.248Z,37.76
2018-02-10T07:49:22.989Z,37.56
2018-02-10T07:50:22.987Z,37.76
2018-02-10T07:51:22.982Z,37.95
2018-02-10T07:52:22.971Z,37.76
2018-02-10T07:53:23.215Z,37.85
2018-02-10T07:54:22.957Z,38.14
2018-02-10T07:55:22.956Z,38.14
2018-02-10T07:56:22.946Z,38.81
2018-02-10T07:57:22.941Z,38.53
2018-02-10T07:58:23.184Z,39.49
2018-02-10T07:59:22.933Z,39.49
2018-02-10T08:00:22.927Z,39.87
2018-02-10T08:01:22.924Z,40.84
2018-02-10T08:02:22.909Z,41.32
2018-02-10T08:03:23.155Z,41.71
2018-02-10T08:04:22.896Z,41.89
2018-02-10T08:05:22.893Z,42.28
2018-02-10T08:06:22.885Z,41.99
2018-02-10T08:07:22.878Z,41.99
2018-02-10T08:08:23.124Z,41.80
2018-02-10T08:09:22.874Z,41.80
2018-02-10T08:10:22.866Z,41.32
2018-02-10T08:11:22.856Z,41.71
2018-02-10T08:12:22.855Z,41.99
2018-02-10T08:13:23.097Z,41.41
2018-02-10T08:14:22.837Z,41.99
2018-02-10T08:15:22.832Z,41.80
2018-02-10T08:16:22.822Z,41.51
2018-02-10T08:17:22.859Z,41.71
2018-02-10T08:18:23.063Z,41.22
2018-02-10T08:19:22.806Z,41.22
2018-02-10T08:20:22.811Z,41.13
2018-02-10T08:21:22.799Z,41.22
2018-02-10T08:22:22.792Z,41.41
2018-02-10T08:23:23.037Z,41.61
2018-02-10T08:24:22.774Z,41.22
2018-02-10T08:25:22.771Z,41.32
2018-02-10T08:26:22.766Z,41.22
2018-02-10T08:27:22.762Z,41.22
2018-02-10T08:28:23.002Z,41.51
2018-02-10T08:29:22.744Z,41.71
2018-02-10T08:30:22.791Z,41.51
2018-02-10T08:31:22.876Z,41.61
2018-02-10T08:32:22.925Z,41.41
2018-02-10T08:33:23.085Z,41.51
2018-02-10T08:34:22.715Z,41.71
2018-02-10T08:35:22.709Z,41.71
2018-02-10T08:36:22.702Z,41.03
2018-02-10T08:37:22.695Z,41.03
2018-02-10T08:38:22.941Z,41.32
2018-02-10T08:39:22.683Z,40.94
2018-02-10T08:40:22.675Z,41.03
2018-02-10T08:41:22.672Z,40.64
2018-02-10T08:42:22.677Z,40.36
2018-02-10T08:43:22.912Z,40.26
2018-02-10T08:44:22.656Z,40.45
2018-02-10T08:45:22.649Z,40.45
2018-02-10T08:46:22.646Z,40.45
2018-02-10T08:47:22.640Z,40.07
2018-02-10T08:48:22.632Z,40.16
2018-02-10T08:49:22.625Z,40.16
2018-02-10T08:50:22.631Z,40.16
2018-02-10T08:51:22.609Z,39.97
2018-02-10T08:52:22.603Z,40.16
2018-02-10T08:53:22.597Z,40.07
2018-02-10T08:54:22.839Z,40.07
2018-02-10T08:55:22.630Z,39.68
2018-02-10T08:56:22.579Z,39.49
2018-02-10T08:57:22.571Z,39.29
2018-02-10T08:58:23.481Z,39.01
2018-02-10T08:59:22.564Z,38.91
2018-02-10T09:00:22.553Z,38.89
2018-02-10T09:01:22.552Z,39.11
2018-02-10T09:02:22.544Z,38.72
2018-02-10T09:03:22.548Z,38.72
2018-02-10T09:04:22.542Z,38.91
2018-02-10T09:05:22.772Z,38.62
2018-02-10T09:06:22.513Z,38.72
2018-02-10T09:07:22.511Z,38.62
2018-02-10T09:08:22.514Z,38.43
2018-02-10T09:09:22.499Z,38.14
2018-02-10T09:10:22.489Z,38.24
2018-02-10T09:11:22.485Z,38.14
2018-02-10T09:12:22.485Z,37.46
2018-02-10T09:13:22.469Z,38.04
2018-02-10T09:14:22.470Z,37.76
2018-02-10T09:15:22.463Z,37.85
2018-02-10T09:16:22.452Z,37.76
2018-02-10T09:17:22.447Z,38.04
2018-02-10T09:18:22.454Z,38.04
2018-02-10T09:19:22.437Z,37.85
2018-02-10T09:20:22.452Z,37.85
2018-02-10T09:21:22.686Z,38.04
2018-02-10T09:22:22.488Z,38.14
2018-02-10T09:23:22.414Z,38.24
2018-02-10T09:24:22.414Z,38.24
2018-02-10T09:25:22.400Z,38.24
2018-02-10T09:26:22.398Z,38.14
2018-02-10T09:27:22.384Z,37.76
2018-02-10T09:28:22.375Z,37.85
2018-02-10T09:29:22.370Z,37.85
2018-02-10T09:30:22.379Z,37.76
2018-02-10T09:31:22.376Z,37.76
2018-02-10T09:32:22.355Z,37.66
2018-02-10T09:33:22.346Z,37.95
2018-02-10T09:34:22.347Z,37.85
2018-02-10T09:35:22.336Z,37.85
2018-02-10T09:36:22.680Z,37.95
2018-02-10T09:37:22.730Z,37.85
2018-02-10T09:38:22.666Z,37.95
2018-02-10T09:39:22.308Z,37.85
2018-02-10T09:40:22.308Z,37.95
2018-02-10T09:41:22.294Z,37.95
2018-02-10T09:42:22.294Z,37.85
2018-02-10T09:43:22.290Z,37.95
2018-02-10T09:44:22.275Z,38.04
2018-02-10T09:45:22.273Z,38.04
2018-02-10T09:46:22.274Z,37.95
2018-02-10T09:47:22.513Z,37.95
2018-02-10T09:48:22.252Z,37.85
2018-02-10T09:49:22.246Z,37.95
2018-02-10T09:50:22.245Z,38.04
2018-02-10T09:51:22.322Z,37.95
2018-02-10T09:52:22.223Z,37.76
2018-02-10T09:53:22.220Z,37.76
2018-02-10T09:54:22.213Z,37.76
2018-02-10T09:55:22.320Z,38.14
2018-02-10T09:56:22.199Z,38.04
2018-02-10T09:57:22.295Z,38.04
2018-02-10T09:58:22.189Z,37.76
2018-02-10T09:59:22.187Z,37.76
2018-02-10T10:00:22.181Z,37.76
2018-02-10T10:01:22.176Z,38.24
2018-02-10T10:02:22.164Z,38.24
2018-02-10T10:03:22.206Z,38.14
2018-02-10T10:04:22.148Z,37.76
2018-02-10T10:05:22.147Z,38.33
2018-02-10T10:06:22.143Z,38.24
2018-02-10T10:07:22.141Z,38.24
2018-02-10T10:08:22.127Z,38.24
2018-02-10T10:09:22.120Z,38.24
2018-02-10T10:10:22.121Z,37.85
2018-02-10T10:11:22.109Z,38.24
2018-02-10T10:12:22.103Z,38.14
2018-02-10T10:13:22.096Z,38.24
2018-02-10T10:14:22.087Z,38.33
2018-02-10T10:15:22.081Z,38.24
2018-02-10T10:16:22.077Z,38.24
2018-02-10T10:17:22.176Z,38.24
2018-02-10T10:18:22.062Z,38.24
2018-02-10T10:19:22.066Z,38.24
2018-02-10T10:20:22.051Z,38.24
2018-02-10T10:21:22.046Z,38.14
2018-02-10T10:22:22.041Z,38.14
2018-02-10T10:23:22.035Z,38.24
2018-02-10T10:24:22.025Z,37.85
2018-02-10T10:25:22.019Z,37.85
2018-02-10T10:26:22.021Z,38.33
2018-02-10T10:27:22.006Z,37.85
2018-02-10T10:28:22.004Z,37.95
2018-02-10T10:29:22.005Z,38.14
2018-02-10T10:30:21.996Z,37.85
2018-02-10T10:31:22.579Z,38.33
2018-02-10T10:32:22.373Z,37.95
2018-02-10T10:33:22.371Z,37.85
2018-02-10T10:34:22.064Z,37.85
2018-02-10T10:35:21.957Z,37.76
2018-02-10T10:36:22.069Z,37.85
2018-02-10T10:37:21.941Z,37.95
2018-02-10T10:38:21.950Z,37.66
2018-02-10T10:39:21.930Z,37.66
2018-02-10T10:40:22.059Z,37.37
2018-02-10T10:41:21.919Z,37.56
2018-02-10T10:42:21.909Z,37.56
2018-02-10T10:43:21.911Z,37.37
2018-02-10T10:44:21.955Z,37.46
2018-02-10T10:45:21.893Z,37.56
2018-02-10T10:46:21.886Z,37.66
2018-02-10T10:47:21.889Z,37.56
2018-02-10T10:48:21.877Z,37.56
2018-02-10T10:49:21.865Z,37.46
2018-02-10T10:50:21.905Z,37.37
2018-02-10T10:51:21.855Z,37.27
2018-02-10T10:57:36.162Z,37.60
2018-02-10T10:58:36.216Z,47.65
2018-02-10T11:34:08.440Z,65.34
2018-02-10T11:35:08.408Z,65.97
2018-02-10T11:36:08.385Z,65.50
2018-02-10T11:37:08.361Z,66.16
2018-02-10T11:38:08.345Z,66.44
2018-02-10T11:39:08.317Z,66.35
2018-02-10T11:40:08.297Z,66.63
2018-02-10T11:41:08.272Z,67.11
2018-02-10T11:42:08.253Z,67.58
2018-02-10T11:43:08.233Z,67.96
2018-02-10T11:44:08.212Z,67.68
2018-02-10T11:45:08.196Z,67.58
2018-02-10T11:46:08.177Z,67.86
2018-02-10T11:47:08.153Z,67.58
2018-02-10T11:48:08.127Z,67.86
2018-02-10T11:49:08.134Z,67.49
2018-02-10T11:50:08.085Z,68.05
2018-02-10T11:51:08.065Z,68.33
2018-02-10T11:52:08.043Z,68.05
2018-02-10T11:53:08.025Z,68.05
2018-02-10T11:54:08.004Z,68.43
2018-02-10T11:55:07.986Z,68.33
2018-02-10T11:56:07.962Z,68.05
2018-02-10T11:57:07.948Z,67.58
2018-02-10T11:58:07.922Z,67.49
2018-02-10T11:59:07.901Z,67.20
2018-02-10T12:00:07.885Z,67.30
2018-02-10T12:01:07.865Z,67.39
2018-02-10T12:02:07.895Z,67.20
2018-02-10T12:03:07.821Z,66.16
2018-02-10T12:04:07.802Z,66.82
2018-02-10T12:05:07.784Z,66.28
2018-02-10T12:06:07.761Z,66.95
2018-02-10T12:07:07.742Z,66.57
2018-02-10T12:08:07.725Z,67.24
2018-02-10T12:09:07.703Z,66.19
2018-02-10T12:10:07.687Z,66.19
2018-02-10T12:11:07.665Z,66.19
2018-02-10T12:12:07.649Z,65.91
2018-02-10T12:13:07.634Z,65.81
2018-02-10T12:14:07.607Z,66.19
2018-02-10T12:15:07.588Z,65.81
2018-02-10T12:16:07.570Z,66.00
2018-02-10T12:17:07.548Z,65.53
2018-02-10T12:18:07.527Z,65.91
2018-02-10T12:19:07.522Z,66.09
2018-02-10T12:20:07.503Z,65.63
2018-02-10T12:21:07.480Z,65.44
2018-02-10T12:22:07.450Z,65.72
2018-02-10T12:23:07.431Z,66.09
2018-02-10T12:24:07.416Z,65.91
2018-02-10T12:25:07.395Z,65.72
2018-02-10T12:26:07.375Z,65.34
2018-02-10T12:27:07.356Z,64.96
2018-02-10T12:28:07.335Z,65.63
2018-02-10T12:29:07.318Z,64.68
2018-02-10T12:30:07.298Z,64.33
2018-02-10T12:31:07.277Z,64.23
2018-02-10T12:32:07.260Z,64.14
2018-02-10T12:33:07.244Z,63.39
2018-02-10T12:34:07.228Z,63.67
2018-02-10T12:35:07.251Z,63.57
2018-02-10T12:36:07.187Z,63.76
2018-02-10T12:37:07.165Z,63.10
2018-02-10T12:38:07.157Z,63.01
2018-02-10T12:39:07.134Z,63.01
2018-02-10T12:40:07.110Z,63.10
2018-02-10T12:41:07.095Z,63.20
2018-02-10T12:42:07.067Z,63.20
2018-02-10T12:43:07.056Z,63.20
2018-02-10T12:44:07.034Z,62.91
2018-02-10T12:45:07.015Z,63.01
2018-02-10T12:46:06.996Z,63.10
2018-02-10T12:47:06.979Z,62.91
2018-02-10T12:48:06.956Z,63.10
2018-02-10T12:49:06.939Z,63.20
2018-02-10T12:50:06.931Z,62.91
2018-02-10T12:51:06.901Z,63.29
2018-02-10T12:52:06.895Z,63.10
2018-02-10T12:53:06.867Z,63.67
2018-02-10T12:54:06.847Z,63.39
2018-02-10T12:55:06.830Z,63.85
2018-02-10T12:56:06.812Z,64.14
2018-02-10T12:57:06.794Z,63.67
2018-02-10T12:58:06.777Z,64.04
2018-02-10T12:59:06.771Z,63.95
2018-02-10T13:00:06.737Z,63.01
2018-02-10T13:01:06.721Z,62.82
2018-02-10T13:02:06.708Z,62.24
2018-02-10T13:03:06.682Z,61.96
2018-02-10T13:04:06.668Z,61.58
2018-02-10T13:05:06.646Z,61.71
2018-02-10T13:06:06.640Z,61.43
2018-02-10T13:07:06.607Z,60.47
2018-02-10T13:08:06.592Z,59.34
2018-02-10T13:09:06.572Z,59.34
2018-02-10T13:10:06.556Z,59.27
2018-02-10T13:11:06.537Z,58.70
2018-02-10T13:12:06.524Z,58.20
2018-02-10T13:13:06.505Z,58.99
2018-02-10T13:14:06.542Z,58.42
2018-02-10T13:15:06.467Z,58.61
2018-02-10T13:16:06.448Z,58.51
2018-02-10T13:17:06.429Z,58.39
2018-02-10T13:18:06.467Z,58.61
2018-02-10T13:19:06.396Z,58.61
2018-02-10T13:20:06.381Z,57.64
2018-02-10T13:21:06.366Z,58.20
2018-02-10T13:22:06.342Z,58.96
2018-02-10T13:23:06.357Z,59.44
2018-02-10T13:24:06.359Z,59.53
2018-02-10T13:25:06.308Z,59.81
2018-02-10T13:26:06.284Z,60.00
2018-02-10T13:27:06.257Z,60.76
2018-02-10T13:28:06.391Z,60.19
2018-02-10T13:29:06.221Z,60.00
2018-02-10T13:30:06.202Z,60.10
2018-02-10T13:31:06.191Z,59.44
2018-02-10T13:32:06.167Z,59.91